Flight Briefing for CPX286

Departure Arrival
Fort Worth Alliance Airport (KAFW)
Click to view FAA NOTAMS
Seattle-Tacoma International Airport (KSEA)
Click to view FAA NOTAMS
Departure Time Arrival Time
N/A N/A
Aircraft Distance
B767-300BDSF 1428nm
Departure METAR Arrival METAR
KAFW 230653Z 16016KT 7SM FEW020 SCT035 BKN300 26/22 A2986 RMK AO2 SLP093 T02560222 KSEA 230653Z 18005KT 10SM BKN130 16/12 A3004 RMK AO2 SLP178 T01610117
Suggested Route
SWABR5 HUDAD PNH ALS JNC TCH TWF BKE PDT CHINS3


View recent IFR Routes data
Notes



Charts and Procedures

Charts for KAFW
No chart available
Charts for KSEA
No chart available

Windy.com Weather Map